createdAt,value
2017-08-03T00:02:07.144Z,14.57
2017-08-03T00:04:35.034Z,15.27
2017-08-03T00:07:02.570Z,15.43
2017-08-03T00:09:30.099Z,14.50
2017-08-03T00:11:57.680Z,14.53
2017-08-03T00:14:25.232Z,14.90
2017-08-03T00:16:53.485Z,15.47
2017-08-03T00:19:21.030Z,13.90
2017-08-03T00:21:48.610Z,14.83
2017-08-03T00:24:16.196Z,14.73
2017-08-03T00:26:43.774Z,14.63
2017-08-03T00:29:11.636Z,14.70
2017-08-03T00:31:39.197Z,14.27
2017-08-03T00:34:06.758Z,14.37
2017-08-03T00:36:34.333Z,14.87
2017-08-03T00:39:01.898Z,15.07
2017-08-03T00:41:29.743Z,13.87
2017-08-03T00:43:57.267Z,14.60
2017-08-03T00:46:25.596Z,14.50
2017-08-03T00:48:53.143Z,14.83
2017-08-03T00:51:20.717Z,14.73
2017-08-03T00:53:48.615Z,15.77
2017-08-03T00:56:16.273Z,14.50
2017-08-03T00:58:44.598Z,15.90
2017-08-03T01:01:12.167Z,15.30
2017-08-03T01:03:39.742Z,15.07
2017-08-03T01:06:07.737Z,14.90
2017-08-03T01:08:35.368Z,15.47
2017-08-03T01:11:02.897Z,15.40
2017-08-03T01:13:30.467Z,15.13
2017-08-03T01:15:57.990Z,14.57
2017-08-03T01:18:25.931Z,15.23
2017-08-03T01:20:53.453Z,15.20
2017-08-03T01:23:21.001Z,14.87
2017-08-03T01:25:48.570Z,15.80
2017-08-03T01:28:16.870Z,14.43
2017-08-03T01:30:44.765Z,15.63
2017-08-03T01:33:12.332Z,16.80
2017-08-03T01:35:39.864Z,16.10
2017-08-03T01:38:07.424Z,16.20
2017-08-03T01:40:34.969Z,15.93
2017-08-03T01:43:02.846Z,16.33
2017-08-03T01:45:37.834Z,15.70
2017-08-03T01:48:05.887Z,16.67
2017-08-03T01:50:33.443Z,15.60
2017-08-03T01:53:00.958Z,16.80
2017-08-03T01:55:28.535Z,16.27
2017-08-03T01:57:56.078Z,17.23
2017-08-03T02:00:24.018Z,16.53
2017-08-03T02:02:52.329Z,15.83
2017-08-03T02:05:19.876Z,16.70
2017-08-03T02:07:47.460Z,17.27
2017-08-03T02:10:15.008Z,16.83
2017-08-03T02:12:42.936Z,16.10
2017-08-03T02:15:10.475Z,16.50
2017-08-03T02:17:37.994Z,16.30
2017-08-03T02:20:05.546Z,16.40
2017-08-03T02:22:33.852Z,17.17
2017-08-03T02:25:01.730Z,16.23
2017-08-03T02:27:29.313Z,17.10
2017-08-03T02:29:56.842Z,17.10
2017-08-03T02:32:24.409Z,17.50
2017-08-03T02:34:51.946Z,16.53
2017-08-03T02:37:19.793Z,16.67
2017-08-03T02:39:48.095Z,17.90
2017-08-03T02:42:15.612Z,18.10
2017-08-03T02:44:43.190Z,17.93
2017-08-03T02:47:11.511Z,18.70
2017-08-03T02:49:39.422Z,19.60
2017-08-03T02:52:06.981Z,18.50
2017-08-03T02:54:34.521Z,17.27
2017-08-03T02:57:02.183Z,18.77
2017-08-03T02:59:29.748Z,17.90
2017-08-03T03:01:57.627Z,19.50
2017-08-03T03:04:25.161Z,19.80
2017-08-03T03:06:52.694Z,18.80
2017-08-03T03:09:20.289Z,17.43
2017-08-03T03:11:47.809Z,18.70
2017-08-03T03:14:15.712Z,17.90
2017-08-03T03:16:43.241Z,19.17
2017-08-03T03:19:10.801Z,17.10
2017-08-03T03:21:38.420Z,17.77
2017-08-03T03:24:05.964Z,18.63
2017-08-03T03:26:33.813Z,16.90
2017-08-03T03:29:01.342Z,19.07
2017-08-03T03:31:28.927Z,19.63
2017-08-03T03:33:56.510Z,19.70
2017-08-03T03:36:24.038Z,19.20
2017-08-03T03:38:53.871Z,18.40
2017-08-03T03:41:21.403Z,18.10
2017-08-03T03:43:48.956Z,17.10
2017-08-03T03:46:16.513Z,19.10
2017-08-03T03:48:44.077Z,16.93
2017-08-03T03:51:12.016Z,18.03
2017-08-03T03:53:39.551Z,20.00
2017-08-03T03:56:07.112Z,19.57
2017-08-03T03:58:34.683Z,18.60
2017-08-03T04:01:02.297Z,18.57
2017-08-03T04:03:31.044Z,18.40
2017-08-03T04:05:58.576Z,18.30
2017-08-03T04:08:26.107Z,17.73
2017-08-03T04:10:53.674Z,19.30
2017-08-03T04:13:21.212Z,18.77
2017-08-03T04:15:49.049Z,18.60
2017-08-03T04:18:21.648Z,17.40
2017-08-03T04:20:50.296Z,18.70
2017-08-03T04:23:17.845Z,17.10
2017-08-03T04:25:45.381Z,17.97
2017-08-03T04:28:12.973Z,18.17
2017-08-03T04:30:40.490Z,17.83
2017-08-03T04:33:08.411Z,17.93
2017-08-03T04:35:35.958Z,18.13
2017-08-03T04:38:03.486Z,16.70
2017-08-03T04:40:31.069Z,16.83
2017-08-03T04:42:58.600Z,17.87
2017-08-03T04:45:27.232Z,17.33
2017-08-03T04:47:54.771Z,18.10
2017-08-03T04:50:22.288Z,17.33
2017-08-03T04:52:49.857Z,16.73
2017-08-03T04:55:17.421Z,16.87
2017-08-03T04:57:45.274Z,17.30
2017-08-03T05:00:12.797Z,17.20
2017-08-03T05:02:40.352Z,17.07
2017-08-03T05:05:07.932Z,16.90
2017-08-03T05:07:35.455Z,17.87
2017-08-03T05:10:03.270Z,19.30
2017-08-03T05:12:30.837Z,15.60
2017-08-03T05:14:58.380Z,17.73
2017-08-03T05:17:25.992Z,17.53
2017-08-03T05:19:53.551Z,15.93
2017-08-03T05:22:21.396Z,17.87
2017-08-03T05:24:48.997Z,16.70
2017-08-03T05:27:16.576Z,16.60
2017-08-03T05:29:44.168Z,16.60
2017-08-03T05:32:11.701Z,17.70
2017-08-03T05:34:39.669Z,19.27
2017-08-03T05:37:07.191Z,17.00
2017-08-03T05:39:34.770Z,17.97
2017-08-03T05:42:02.320Z,16.40
2017-08-03T05:44:29.859Z,15.77
2017-08-03T05:46:58.647Z,17.27
2017-08-03T05:49:26.978Z,16.27
2017-08-03T05:51:54.544Z,16.70
2017-08-03T05:54:22.137Z,16.27
2017-08-03T05:56:49.674Z,14.97
2017-08-03T05:59:17.541Z,15.70
2017-08-03T06:01:45.109Z,15.73
2017-08-03T06:04:12.634Z,14.80
2017-08-03T06:06:40.207Z,15.40
2017-08-03T06:09:07.778Z,15.80
2017-08-03T06:11:47.221Z,14.20
2017-08-03T06:14:14.817Z,14.97
2017-08-03T06:16:43.125Z,14.23
2017-08-03T06:19:11.011Z,15.60
2017-08-03T06:21:38.721Z,14.33
2017-08-03T06:24:10.228Z,13.23
2017-08-03T06:26:37.804Z,14.07
2017-08-03T06:29:05.383Z,14.00
2017-08-03T06:31:32.924Z,12.83
2017-08-03T06:34:00.485Z,14.07
2017-08-03T06:36:28.031Z,12.90
2017-08-03T06:38:55.542Z,14.37
2017-08-03T06:41:23.883Z,12.43
2017-08-03T06:43:59.673Z,13.07
2017-08-03T06:46:27.558Z,13.67
2017-08-03T06:48:55.110Z,13.83
2017-08-03T06:51:24.427Z,13.63
2017-08-03T06:53:52.051Z,13.20
2017-08-03T06:56:27.919Z,12.93
2017-08-03T06:58:55.811Z,13.60
2017-08-03T07:01:23.338Z,12.57
2017-08-03T07:03:50.861Z,12.00
2017-08-03T07:06:18.418Z,12.37
2017-08-03T07:08:45.944Z,12.20
2017-08-03T07:11:13.845Z,11.37
2017-08-03T07:13:41.373Z,12.30
2017-08-03T07:16:08.889Z,12.30
2017-08-03T07:18:36.441Z,11.80
2017-08-03T07:21:03.969Z,11.83
2017-08-03T07:23:31.901Z,10.87
2017-08-03T07:25:59.450Z,11.10
2017-08-03T07:28:26.976Z,10.37
2017-08-03T07:30:54.541Z,10.37
2017-08-03T07:33:22.068Z,11.40
2017-08-03T07:35:49.965Z,10.10
2017-08-03T07:38:17.539Z,11.00
2017-08-03T07:40:45.068Z,9.70
2017-08-03T07:43:29.185Z,10.00
2017-08-03T07:45:57.491Z,10.33
2017-08-03T07:48:25.445Z,10.63
2017-08-03T07:50:53.012Z,10.53
2017-08-03T07:53:20.580Z,10.53
2017-08-03T07:55:48.126Z,10.50
2017-08-03T07:58:15.681Z,9.67
2017-08-03T08:00:44.341Z,10.33
2017-08-03T08:03:11.882Z,10.80
2017-08-03T08:05:39.444Z,10.40
2017-08-03T08:08:07.046Z,10.00
2017-08-03T08:10:35.335Z,9.80
2017-08-03T08:13:03.924Z,10.57
2017-08-03T08:15:31.508Z,11.00
2017-08-03T08:17:59.026Z,12.13
2017-08-03T08:20:26.587Z,12.47
2017-08-03T08:22:54.887Z,11.40
2017-08-03T08:25:22.900Z,11.50
2017-08-03T08:27:50.441Z,10.90
2017-08-03T08:30:17.981Z,10.63
2017-08-03T08:32:45.554Z,10.47
2017-08-03T08:35:13.115Z,10.87
2017-08-03T08:37:41.013Z,12.10
2017-08-03T08:40:08.536Z,11.53
2017-08-03T08:42:36.057Z,11.10
2017-08-03T08:45:03.628Z,10.60
2017-08-03T08:47:31.982Z,11.47
2017-08-03T08:49:59.809Z,11.30
2017-08-03T08:52:27.334Z,11.10
2017-08-03T08:54:54.903Z,11.83
2017-08-03T08:57:23.226Z,11.63
2017-08-03T08:59:50.764Z,13.53
2017-08-03T09:02:18.701Z,12.70
2017-08-03T09:04:46.241Z,13.70
2017-08-03T09:07:13.809Z,14.03
2017-08-03T09:09:41.416Z,13.03
2017-08-03T09:12:09.624Z,12.93
2017-08-03T09:14:37.603Z,14.40
2017-08-03T09:17:05.162Z,13.17
2017-08-03T09:19:32.702Z,13.17
2017-08-03T09:22:00.268Z,13.43
2017-08-03T09:24:27.817Z,12.80
2017-08-03T09:26:55.715Z,13.03
2017-08-03T09:29:23.261Z,12.30
2017-08-03T09:31:50.897Z,11.20
2017-08-03T09:34:18.570Z,11.27
2017-08-03T09:36:46.243Z,12.00
2017-08-03T09:39:14.151Z,12.10
2017-08-03T09:41:42.464Z,12.43
2017-08-03T09:44:10.105Z,12.80
2017-08-03T09:46:43.885Z,10.83
2017-08-03T09:49:11.613Z,18.37
2017-08-03T09:51:39.483Z,10.77
2017-08-03T09:54:15.582Z,8.93
2017-08-03T09:56:43.544Z,10.90
2017-08-03T09:59:11.113Z,10.40
2017-08-03T10:01:38.668Z,10.17
2017-08-03T10:04:06.231Z,11.10
2017-08-03T10:06:39.361Z,10.43
2017-08-03T10:09:07.373Z,10.10
2017-08-03T10:11:34.923Z,9.47
2017-08-03T10:14:11.768Z,10.03
2017-08-03T10:16:43.229Z,10.40
2017-08-03T10:19:10.790Z,9.70
2017-08-03T10:21:38.398Z,10.70
2017-08-03T10:24:05.971Z,10.00
2017-08-03T10:26:33.828Z,10.73
2017-08-03T10:29:05.208Z,10.90
2017-08-03T10:31:33.832Z,10.87
2017-08-03T10:34:01.565Z,10.73
2017-08-03T10:36:39.041Z,10.80
2017-08-03T10:39:06.600Z,13.43
2017-08-03T10:41:34.443Z,11.83
2017-08-03T10:44:02.090Z,10.60
2017-08-03T10:46:30.217Z,10.73
2017-08-03T10:48:58.231Z,10.30
2017-08-03T10:51:26.043Z,10.73
2017-08-03T10:53:53.601Z,10.10
2017-08-03T10:56:22.117Z,10.67
2017-08-03T10:58:50.666Z,11.17
2017-08-03T11:01:18.617Z,10.20
2017-08-03T11:03:46.188Z,11.00
2017-08-03T11:06:33.418Z,10.67
2017-08-03T11:09:00.979Z,10.00
2017-08-03T11:11:28.545Z,10.57
2017-08-03T11:13:56.219Z,10.70
2017-08-03T11:16:23.940Z,11.03
2017-08-03T11:18:52.083Z,10.23
2017-08-03T11:21:19.688Z,10.20
2017-08-03T11:23:47.253Z,9.27
2017-08-03T11:28:46.617Z,8.67
2017-08-03T11:31:14.559Z,9.20
2017-08-03T11:33:43.698Z,9.93
2017-08-03T11:36:11.356Z,8.87
2017-08-03T11:38:40.902Z,8.87
2017-08-03T11:41:08.424Z,9.20
2017-08-03T11:43:36.464Z,9.83
2017-08-03T11:46:04.541Z,9.83
2017-08-03T11:48:32.861Z,10.87
2017-08-03T11:51:02.441Z,9.40
2017-08-03T11:53:30.018Z,9.47
2017-08-03T11:55:57.863Z,20.00
2017-08-03T11:58:27.228Z,8.60
2017-08-03T12:00:54.840Z,9.53
2017-08-03T12:03:23.194Z,9.00
2017-08-03T12:05:55.324Z,8.23
2017-08-03T12:08:23.226Z,8.97
2017-08-03T12:10:50.745Z,8.20
2017-08-03T12:13:18.859Z,9.07
2017-08-03T12:15:46.421Z,8.60
2017-08-03T12:18:13.966Z,8.10
2017-08-03T12:20:41.833Z,7.33
2017-08-03T12:23:09.389Z,6.73
2017-08-03T12:25:37.151Z,6.90
2017-08-03T12:28:05.689Z,7.70
2017-08-03T12:30:33.250Z,7.70
2017-08-03T12:33:02.748Z,7.93
2017-08-03T12:35:30.313Z,7.90
2017-08-03T12:37:58.649Z,7.40
2017-08-03T12:40:26.369Z,6.10
2017-08-03T12:42:53.919Z,5.63
2017-08-03T12:45:22.490Z,7.20
2017-08-03T12:47:50.796Z,6.20
2017-08-03T12:50:18.508Z,5.90
2017-08-03T12:52:46.100Z,6.70
2017-08-03T12:55:14.080Z,6.53
2017-08-03T12:57:42.127Z,7.00
2017-08-03T13:00:10.493Z,6.23
2017-08-03T13:02:38.066Z,6.80
2017-08-03T13:05:05.706Z,6.00
2017-08-03T13:07:33.469Z,6.73
2017-08-03T13:10:01.473Z,6.70
2017-08-03T13:12:29.201Z,6.87
2017-08-03T13:14:56.931Z,6.03
2017-08-03T13:17:28.334Z,6.27
2017-08-03T13:19:56.593Z,6.30
2017-08-03T13:22:24.483Z,5.90
2017-08-03T13:24:52.028Z,6.40
2017-08-03T13:27:19.665Z,7.00
2017-08-03T13:29:50.607Z,6.67
2017-08-03T13:32:18.178Z,7.00
2017-08-03T13:34:46.075Z,6.90
2017-08-03T13:37:14.380Z,6.73
2017-08-03T13:39:42.767Z,6.30
2017-08-03T13:42:11.256Z,5.83
2017-08-03T13:44:38.841Z,6.77
2017-08-03T13:47:16.805Z,6.50
2017-08-03T13:49:50.095Z,6.57
2017-08-03T13:52:34.312Z,6.20
2017-08-03T13:55:01.886Z,6.63
2017-08-03T13:57:34.158Z,7.93
2017-08-03T14:00:03.721Z,7.00
2017-08-03T14:02:38.825Z,7.03
2017-08-03T14:05:06.411Z,7.43
2017-08-03T14:07:33.991Z,7.77
2017-08-03T14:10:01.653Z,7.47
2017-08-03T14:12:29.353Z,7.70
2017-08-03T14:15:03.498Z,7.67
2017-08-03T14:17:31.831Z,9.10
2017-08-03T14:19:59.375Z,7.23
2017-08-03T14:22:26.957Z,6.90
2017-08-03T14:24:54.523Z,7.43
2017-08-03T14:27:22.366Z,7.43
2017-08-03T14:29:49.936Z,7.17
2017-08-03T14:32:37.915Z,7.00
2017-08-03T14:35:05.450Z,7.60
2017-08-03T14:37:32.999Z,7.20
2017-08-03T14:40:00.572Z,7.13
2017-08-03T14:42:28.105Z,7.33
2017-08-03T14:44:55.941Z,7.50
2017-08-03T14:47:37.010Z,7.20
2017-08-03T14:50:04.975Z,7.37
2017-08-03T14:52:32.497Z,7.70
2017-08-03T14:55:00.006Z,6.00
2017-08-03T14:57:27.809Z,6.50
2017-08-03T14:59:55.356Z,6.63
2017-08-03T15:02:23.247Z,6.00
2017-08-03T15:04:50.760Z,6.10
2017-08-03T15:07:18.289Z,6.90
2017-08-03T15:09:45.902Z,6.53
2017-08-03T15:12:17.252Z,7.00
2017-08-03T15:14:50.472Z,6.40
2017-08-03T15:17:18.016Z,8.30
2017-08-03T15:19:45.688Z,5.90
2017-08-03T15:22:21.502Z,6.17
2017-08-03T15:24:49.046Z,6.40
2017-08-03T15:27:30.796Z,6.10
2017-08-03T15:29:58.759Z,6.37
2017-08-03T15:32:26.325Z,6.20
2017-08-03T15:34:53.886Z,6.30
2017-08-03T15:37:21.446Z,6.30
2017-08-03T15:39:49.375Z,6.40
2017-08-03T15:42:20.887Z,5.63
2017-08-03T15:44:48.733Z,6.20
2017-08-03T15:47:16.317Z,6.63
2017-08-03T15:49:43.839Z,7.30
2017-08-03T15:52:11.520Z,5.80
2017-08-03T15:54:39.125Z,6.53
2017-08-03T15:57:08.766Z,6.03
2017-08-03T15:59:37.137Z,5.97
2017-08-03T16:02:04.712Z,5.60
2017-08-03T16:04:39.334Z,5.43
2017-08-03T16:07:06.885Z,6.03
2017-08-03T16:09:34.800Z,6.37
2017-08-03T16:12:04.412Z,5.80
2017-08-03T16:14:31.956Z,5.50
2017-08-03T16:16:59.527Z,6.30
2017-08-03T16:19:35.112Z,6.30
2017-08-03T16:22:02.994Z,6.17
2017-08-03T16:24:30.785Z,6.30
2017-08-03T16:26:58.421Z,5.10
2017-08-03T16:29:25.993Z,6.17
2017-08-03T16:31:53.599Z,5.57
2017-08-03T16:34:21.453Z,6.27
2017-08-03T16:36:49.019Z,5.30
2017-08-03T16:39:16.574Z,5.80
2017-08-03T16:41:44.215Z,6.03
2017-08-03T16:44:17.725Z,5.70
2017-08-03T16:46:45.670Z,5.87
2017-08-03T16:49:26.057Z,6.23
2017-08-03T16:51:53.918Z,7.27
2017-08-03T16:54:21.472Z,6.13
2017-08-03T16:57:04.132Z,6.30
2017-08-03T16:59:31.673Z,6.23
2017-08-03T17:01:59.581Z,6.37
2017-08-03T17:04:28.312Z,6.40
2017-08-03T17:06:55.886Z,7.23
2017-08-03T17:09:23.461Z,6.70
2017-08-03T17:11:51.009Z,6.23
2017-08-03T17:14:18.869Z,6.20
2017-08-03T17:16:47.427Z,5.60
2017-08-03T17:19:14.988Z,5.90
2017-08-03T17:21:43.333Z,6.10
2017-08-03T17:24:10.910Z,5.70
2017-08-03T17:26:38.845Z,5.93
2017-08-03T17:29:06.378Z,5.70
2017-08-03T17:31:34.041Z,6.30
2017-08-03T17:34:01.725Z,6.70
2017-08-03T17:36:29.281Z,6.10
2017-08-03T17:38:57.223Z,6.00
2017-08-03T17:41:24.782Z,6.43
2017-08-03T17:43:52.418Z,5.50
2017-08-03T17:46:20.760Z,5.90
2017-08-03T17:48:48.297Z,6.23
2017-08-03T17:51:16.213Z,6.70
2017-08-03T17:53:43.769Z,6.90
2017-08-03T17:56:11.751Z,6.03
2017-08-03T17:58:39.487Z,6.50
2017-08-03T18:01:07.065Z,6.50
2017-08-03T18:03:34.921Z,5.53
2017-08-03T18:06:02.485Z,6.47
2017-08-03T18:08:44.802Z,6.47
2017-08-03T18:11:12.381Z,6.80
2017-08-03T18:13:46.220Z,6.90
2017-08-03T18:16:14.695Z,6.50
2017-08-03T18:18:42.299Z,6.90
2017-08-03T18:21:09.908Z,6.07
2017-08-03T18:23:37.533Z,6.50
2017-08-03T18:26:06.277Z,7.53
2017-08-03T18:28:34.049Z,7.20
2017-08-03T18:31:01.716Z,6.83
2017-08-03T18:33:29.423Z,8.00
2017-08-03T18:35:57.154Z,6.13
2017-08-03T18:38:25.088Z,6.63
2017-08-03T18:40:52.781Z,6.63
2017-08-03T18:43:20.468Z,6.90
2017-08-03T18:45:48.126Z,6.10
2017-08-03T18:48:15.692Z,6.87
2017-08-03T18:50:44.579Z,6.20
2017-08-03T18:53:12.152Z,6.40
2017-08-03T18:55:39.947Z,7.25
2017-08-03T18:58:07.551Z,7.60
2017-08-03T19:00:35.231Z,6.67
2017-08-03T19:03:03.123Z,7.20
2017-08-03T19:05:30.744Z,8.13
2017-08-03T19:08:01.501Z,8.43
2017-08-03T19:10:29.132Z,6.40
2017-08-03T19:12:56.797Z,6.80
2017-08-03T19:15:28.653Z,8.03
2017-08-03T19:17:56.362Z,7.13
2017-08-03T19:20:24.075Z,7.40
2017-08-03T19:22:58.009Z,8.00
2017-08-03T19:25:25.658Z,7.13
2017-08-03T19:27:53.575Z,6.97
2017-08-03T19:30:21.934Z,6.73
2017-08-03T19:32:49.652Z,8.47
2017-08-03T19:35:17.449Z,7.67
2017-08-03T19:37:45.301Z,8.03
2017-08-03T19:40:13.555Z,7.53
2017-08-03T19:42:47.250Z,7.17
2017-08-03T19:45:18.357Z,8.20
2017-08-03T19:47:46.088Z,7.57
2017-08-03T19:50:14.727Z,7.93
2017-08-03T19:52:43.203Z,7.50
2017-08-03T19:55:12.733Z,7.30
2017-08-03T19:57:40.896Z,7.67
2017-08-03T20:00:08.501Z,8.90
2017-08-03T20:02:36.046Z,8.13
2017-08-03T20:05:06.738Z,11.40
2017-08-03T20:07:44.246Z,9.37
2017-08-03T20:10:13.647Z,7.07
2017-08-03T20:12:41.198Z,7.17
2017-08-03T20:15:10.313Z,8.60
2017-08-03T20:17:41.651Z,7.40
2017-08-03T20:20:09.294Z,8.03
2017-08-03T20:22:36.981Z,8.00
2017-08-03T20:25:04.666Z,7.77
2017-08-03T20:27:33.507Z,8.47
2017-08-03T20:30:03.271Z,7.87
2017-08-03T20:32:30.978Z,7.63
2017-08-03T20:34:59.764Z,8.60
2017-08-03T20:37:27.727Z,8.00
2017-08-03T20:39:56.397Z,14.90
2017-08-03T20:42:24.114Z,8.50
2017-08-03T20:44:52.591Z,8.50
2017-08-03T20:47:20.409Z,8.83
2017-08-03T20:49:48.112Z,7.93
2017-08-03T20:52:19.064Z,7.50
2017-08-03T20:54:46.715Z,8.80
2017-08-03T20:57:19.294Z,8.67
2017-08-03T20:59:46.931Z,7.63
2017-08-03T21:02:14.599Z,8.70
2017-08-03T21:04:43.395Z,9.23
2017-08-03T21:07:11.077Z,7.63
2017-08-03T21:09:40.147Z,8.13
2017-08-03T21:12:07.899Z,8.33
2017-08-03T21:14:37.690Z,8.30
2017-08-03T21:17:05.399Z,8.00
2017-08-03T21:19:32.976Z,8.40
2017-08-03T21:22:00.901Z,8.07
2017-08-03T21:24:33.014Z,9.20
2017-08-03T21:27:01.012Z,8.27
2017-08-03T21:29:28.640Z,8.40
2017-08-03T21:31:56.497Z,9.63
2017-08-03T21:34:24.157Z,9.83
2017-08-03T21:36:51.876Z,8.83
2017-08-03T21:39:19.918Z,7.73
2017-08-03T21:41:47.528Z,8.43
2017-08-03T21:44:15.085Z,7.13
2017-08-03T21:46:42.663Z,7.60
2017-08-03T21:49:10.263Z,7.07
2017-08-03T21:51:38.143Z,6.97
2017-08-03T21:54:05.721Z,9.13
2017-08-03T21:56:33.322Z,7.67
2017-08-03T21:59:05.695Z,7.70
2017-08-03T22:01:33.235Z,8.50
2017-08-03T22:04:01.982Z,7.90
2017-08-03T22:06:29.645Z,9.30
2017-08-03T22:08:57.335Z,8.97
2017-08-03T22:11:24.919Z,8.27
2017-08-03T22:13:52.496Z,8.80
2017-08-03T22:16:20.402Z,10.70
2017-08-03T22:18:47.934Z,8.27
2017-08-03T22:21:15.471Z,8.30
2017-08-03T22:23:43.029Z,9.13
2017-08-03T22:26:11.303Z,9.27
2017-08-03T22:28:39.196Z,9.13
2017-08-03T22:31:06.744Z,8.13
2017-08-03T22:33:35.195Z,8.73
2017-08-03T22:36:02.800Z,9.30
2017-08-03T22:38:31.226Z,8.37
2017-08-03T22:40:59.154Z,8.73
2017-08-03T22:43:26.681Z,7.90
2017-08-03T22:45:54.209Z,8.57
2017-08-03T22:48:22.075Z,9.47
2017-08-03T22:50:49.598Z,9.43
2017-08-03T22:53:17.139Z,9.67
2017-08-03T22:55:45.063Z,10.30
2017-08-03T22:58:13.379Z,9.37
2017-08-03T23:00:44.773Z,9.10
2017-08-03T23:03:12.636Z,11.97
2017-08-03T23:05:40.166Z,10.63
2017-08-03T23:08:07.714Z,12.80
2017-08-03T23:10:35.564Z,13.30
2017-08-03T23:13:03.860Z,12.13
2017-08-03T23:15:31.403Z,11.40
2017-08-03T23:17:59.318Z,12.30
2017-08-03T23:20:26.859Z,12.30
2017-08-03T23:22:54.388Z,12.77
2017-08-03T23:25:23.044Z,10.97
2017-08-03T23:27:50.560Z,11.63
2017-08-03T23:30:18.136Z,11.00
2017-08-03T23:32:46.025Z,10.50
2017-08-03T23:35:13.560Z,11.73
2017-08-03T23:37:41.993Z,10.60
2017-08-03T23:40:09.820Z,11.00
2017-08-03T23:42:37.334Z,8.00
2017-08-03T23:45:08.666Z,8.77
2017-08-03T23:47:36.473Z,8.90
2017-08-03T23:50:04.013Z,9.37
2017-08-03T23:52:43.703Z,9.07
2017-08-03T23:55:11.257Z,8.87
2017-08-03T23:57:38.838Z,9.00
